02:07 MTB Tschirgantrunde klassisch
Ort Moetz Datum 25.06.2011 17:17:24
Kategorie MTB
Distanz 48,32 Kilometer Steigung 513,5 Meter Gefälle -555,3 Meter
Gesamt Zeit 02:06:43 Aktiv 02:06:43 Pause 00:00:00
Durchs. Tempo 22,9 km/h Tempo max. 42,4 km/h Tempo min. 6,8 km/h
Kalorien 0 Durchs. HF 136 BPM HF max. 162 BPM
Wetter 18 °C Clouds
Ausrüstung Avid - Juicy BB7 organic
Specialized - Stumpjumper Comp
Specialized - BG S-Works MTB
Shimano - HG-93 XT
Schwalbe - Racing Ralph hinten
Schwalbe - Nobby Nic vorne
Notiz Tschirgantrunde "klassisch" ... bis Imst Gegenwind, GA2 ... garmin connect
Splits
Distanz (km) Gesamt Zeit Split Zeit Split Tempo Split Tempo Höhenprofil (m)
1,00 00:02:18 00:02:18 00:02:18 26,1 -2,83
2,00 00:04:32 00:02:14 00:02:14 26,9 4,04
3,00 00:06:46 00:02:14 00:02:14 26,9 5,21
4,00 00:08:55 00:02:09 00:02:09 27,9 1,31
5,00 00:11:03 00:02:08 00:02:08 28,1 -1,23
6,00 00:13:09 00:02:06 00:02:06 28,6 3,49
7,00 00:15:22 00:02:13 00:02:13 27,1 17,72
8,00 00:18:47 00:03:25 00:03:25 17,6 43,34
9,00 00:21:09 00:02:22 00:02:22 25,4 -9,80
10,00 00:22:54 00:01:45 00:01:45 34,3 -19,06
11,00 00:24:52 00:01:58 00:01:58 30,5 -15,62
12,00 00:27:39 00:02:47 00:02:47 21,6 26,65
13,00 00:30:02 00:02:23 00:02:23 25,2 -4,29
14,00 00:32:56 00:02:54 00:02:54 20,7 8,60
15,00 00:35:03 00:02:07 00:02:07 28,3 -5,46
16,00 00:37:26 00:02:23 00:02:23 25,2 6,95
17,00 00:39:56 00:02:30 00:02:30 24,0 2,36
18,00 00:42:07 00:02:11 00:02:11 27,5 -0,78
19,00 00:44:46 00:02:39 00:02:39 22,6 -2,43
20,00 00:46:57 00:02:11 00:02:11 27,5 -0,67
21,00 00:49:15 00:02:18 00:02:18 26,1 10,07
22,00 00:51:30 00:02:15 00:02:15 26,7 10,23
23,00 00:54:07 00:02:37 00:02:37 22,9 20,49
24,00 00:56:23 00:02:16 00:02:16 26,5 2,71
25,00 00:58:43 00:02:20 00:02:20 25,7 16,94
26,00 01:01:25 00:02:42 00:02:42 22,2 9,23
27,00 01:04:19 00:02:54 00:02:54 20,7 25,40
28,00 01:06:49 00:02:30 00:02:30 24,0 -1,21
29,00 01:09:46 00:02:57 00:02:57 20,3 22,08
30,00 01:12:02 00:02:16 00:02:16 26,5 -4,01
31,00 01:14:39 00:02:37 00:02:37 22,9 12,16
32,00 01:16:52 00:02:13 00:02:13 27,1 -21,67
33,00 01:19:16 00:02:24 00:02:24 25,0 0,08
34,00 01:21:26 00:02:10 00:02:10 27,7 6,34
35,00 01:24:42 00:03:16 00:03:16 18,4 25,56
36,00 01:27:58 00:03:16 00:03:16 18,4 32,13
37,00 01:31:51 00:03:53 00:03:53 15,5 44,16
38,00 01:36:40 00:04:49 00:04:49 12,5 71,25
39,00 01:43:08 00:06:28 00:06:28 9,3 80,32
40,00 01:47:45 00:04:37 00:04:37 13,0 49,53
41,00 01:52:02 00:04:17 00:04:17 14,0 -14,11
42,00 01:54:01 00:01:59 00:01:59 30,3 -34,56
43,00 01:56:12 00:02:11 00:02:11 27,5 -44,51
44,00 01:58:17 00:02:05 00:02:05 28,8 -24,69
45,00 02:00:20 00:02:03 00:02:03 29,3 -24,00
46,00 02:02:30 00:02:10 00:02:10 27,7 -91,33
47,00 02:04:15 00:01:45 00:01:45 34,3 -92,14
48,00 02:06:05 00:01:50 00:01:50 32,7 -108,56